Alachua, FL

12:09 AM EST on November 24, 2014 (GMT -0500)
USGS | Change Station
CLOSE
Current Station
Personal Weather Station
Location: Gainesville, FL
Elevation: 157 ft
Nearby Weather Stations

Elev 157 ft 29.73 °N, 82.42 °W | Updated 11 minutes ago

Mostly Cloudy
Mostly Cloudy
73.2 °F
Feels Like 70 °F
N
2.0
Wind Variable Wind from North
Gusts 8.0 mph

Today
High -- | Low -- °F
--% Chance of Precip.
Yesterday
High -- | Low -- °F
Precip. -- in
7:02 AM 5:31 PM
Waxing Crescent, 3% visible
Pressure 29.88 in
Visibility 10.0 miles
Clouds Overcast 1100 ft
Heat Index 70 °F
Dew Point 71 °F
Humidity 93%
Rainfall 0.23 in
Snow Depth Not available.
UV 0 out of 12
Pollen .40 out of 12
Air Quality Not available.
Flu Activity Not available.
METAR KGNV 240453Z AUTO 20007KT 10SM OVC011 23/22 A2989 RMK AO2 SLP119 T02280217 402780189

More Conditions Fewer Conditions

Pressure 29.88 in
Visibility 10.0 miles
Clouds Overcast 1100 ft
Heat Index 70 °F
Dew Point 71 °F
Humidity 93%
Rainfall 0.23 in
Snow Depth Not available.
UV 0 out of 12
Pollen .40 out of 12
Air Quality Not available.
Flu Activity Not available.
METAR KGNV 240453Z AUTO 20007KT 10SM OVC011 23/22 A2989 RMK AO2 SLP119 T02280217 402780189

More Conditions Fewer Conditions

10-Day Weather Forecast

Almanac

Astronomy

Nov. 24, 2014 Rise Set
Actual Time
Civil Twilight
Nautical Twilight
Astronomical Twilight
Moon
Length of Visible Light
Length of Day
Tomorrow will be .
, % of the Moon is Illuminated

Today's Extremes

State Highs State Lows

Community

WunderPhotos

Upload Photos

1,773,269 photos uploaded!

WunderBlogs® & News

Nearby

Air Quality

  Air Quality AQ Index Pollutant
Not available.

Snow Depth

Station Depth Elevation

Earthquake Activity

City Distance Mag. Time & Date
Minimum magnitude displayed is 2.5.

Coastal Water Temperatures

Place Temperature

Nearby Weather Stations